Time;durP1;ratioP1;P1;durP2;ratioP2;P2;SDS_P1;SDS_P2;PMS_P1;PMS_P2;Temp;Humidity;BMP_temperature;BMP_pressure;BME280_temperature;BME280_humidity;BME280_pressure;Samples;Min_cycle;Max_cycle;Signal;HPM_P1;HPM_P2
2023/12/10 00:00:18;;;;;;;2.05;1.40;;;;;;;7.38;100.00;95753.56;29395;274;63009;-58
2023/12/10 00:00:49;;;;;;;0.50;0.50;;;;;;;7.40;100.00;95745.97;29395;235;63004;-61
2023/12/10 00:01:20;;;;;;;0.50;0.50;;;;;;;7.37;100.00;95744.69;29395;235;63008;-59
2023/12/10 00:01:52;;;;;;;0.60;0.60;;;;;;;7.36;100.00;95745.78;29395;269;63004;-57
2023/12/10 00:02:24;;;;;;;0.50;0.50;;;;;;;7.39;100.00;95734.38;29395;226;63008;-57
2023/12/10 00:02:55;;;;;;;1.20;1.20;;;;;;;7.46;100.00;95738.59;29395;205;63005;-56
2023/12/10 00:03:27;;;;;;;0.60;0.60;;;;;;;7.53;100.00;95730.91;29395;230;63009;-61
2023/12/10 00:03:58;;;;;;;0.50;0.50;;;;;;;7.55;100.00;95744.88;29395;200;63005;-60
2023/12/10 00:04:29;;;;;;;0.50;0.50;;;;;;;7.55;100.00;95743.00;29395;243;63009;-56
2023/12/10 00:05:01;;;;;;;0.60;0.60;;;;;;;7.53;100.00;95755.19;29395;225;64009;-58
2023/12/10 00:05:32;;;;;;;1.80;1.70;;;;;;;7.53;100.00;95755.19;29395;222;63009;-57
2023/12/10 00:06:04;;;;;;;0.50;0.50;;;;;;;7.46;100.00;95760.19;29395;208;63004;-59
2023/12/10 00:06:36;;;;;;;0.52;0.52;;;;;;;7.42;100.00;95769.97;29395;197;63016;-57
2023/12/10 00:07:07;;;;;;;0.60;0.60;;;;;;;7.39;100.00;95755.97;29395;234;63004;-56
2023/12/10 00:07:38;;;;;;;0.50;0.50;;;;;;;7.38;100.00;95767.06;29395;220;63015;-60
2023/12/10 00:08:10;;;;;;;0.50;0.50;;;;;;;7.38;100.00;95748.97;29394;209;64009;-57
2023/12/10 00:08:41;;;;;;;0.60;0.60;;;;;;;7.37;100.00;95770.87;29395;207;63008;-57
2023/12/10 00:09:13;;;;;;;0.52;0.52;;;;;;;7.39;100.00;95755.19;29395;212;63004;-56
2023/12/10 00:09:44;;;;;;;0.60;0.60;;;;;;;7.43;100.00;95771.56;29395;203;63009;-57
2023/12/10 00:10:15;;;;;;;0.57;0.57;;;;;;;7.43;100.00;95772.38;29395;253;63005;-59
2023/12/10 00:10:47;;;;;;;0.60;0.60;;;;;;;7.38;100.00;95775.16;29395;226;63009;-58
2023/12/10 00:11:19;;;;;;;0.60;0.60;;;;;;;7.39;100.00;95785.66;29395;252;63005;-59
2023/12/10 00:11:50;;;;;;;0.60;0.60;;;;;;;7.40;100.00;95781.88;29395;240;63009;-58
2023/12/10 00:12:22;;;;;;;0.50;0.50;;;;;;;7.37;100.00;95768.97;29395;280;63005;-59
2023/12/10 00:12:54;;;;;;;0.50;0.50;;;;;;;7.42;100.00;95788.88;29395;198;63009;-60
2023/12/10 00:13:26;;;;;;;0.60;0.60;;;;;;;7.42;100.00;95770.78;29394;270;64009;-57
2023/12/10 00:13:57;;;;;;;0.50;0.50;;;;;;;7.39;100.00;95780.25;29395;207;63009;-58
2023/12/10 00:14:29;;;;;;;0.60;0.60;;;;;;;7.40;100.00;95779.16;29395;230;63008;-57
2023/12/10 00:15:00;;;;;;;0.50;0.50;;;;;;;7.37;100.00;95777.06;29395;202;63009;-56
2023/12/10 00:15:31;;;;;;;0.50;0.50;;;;;;;7.34;100.00;95784.97;29395;213;63004;-57
2023/12/10 00:16:03;;;;;;;1.12;1.00;;;;;;;7.30;100.00;95773.97;29395;216;63008;-58
2023/12/10 00:16:35;;;;;;;0.60;0.60;;;;;;;7.29;100.00;95782.34;29395;226;63004;-56
2023/12/10 00:17:06;;;;;;;0.50;0.50;;;;;;;7.28;100.00;95784.25;29395;224;63009;-56
2023/12/10 00:17:37;;;;;;;0.60;0.60;;;;;;;7.28;100.00;95776.16;29395;281;63005;-59
2023/12/10 00:18:09;;;;;;;0.57;0.57;;;;;;;7.31;100.00;95790.94;29395;197;63009;-58
2023/12/10 00:18:40;;;;;;;0.60;0.60;;;;;;;7.30;100.00;95790.16;29394;207;64009;-58
2023/12/10 00:19:11;;;;;;;0.60;0.60;;;;;;;7.28;100.00;95792.34;29395;257;63009;-58
2023/12/10 00:19:43;;;;;;;0.60;0.60;;;;;;;7.29;100.00;95798.53;29395;214;63005;-57
2023/12/10 00:20:15;;;;;;;0.50;0.50;;;;;;;7.34;100.00;95788.44;29395;224;63009;-57
2023/12/10 00:20:46;;;;;;;0.60;0.60;;;;;;;7.38;100.00;95796.75;29395;207;63012;-57
2023/12/10 00:21:18;;;;;;;0.50;0.50;;;;;;;7.42;100.00;95791.56;29395;198;63009;-58
2023/12/10 00:21:50;;;;;;;0.50;0.50;;;;;;;7.44;100.00;95789.38;29395;209;63004;-59
2023/12/10 00:22:22;;;;;;;0.50;0.50;;;;;;;7.46;99.51;95793.37;29395;204;63004;-57
2023/12/10 00:22:53;;;;;;;0.50;0.50;;;;;;;7.44;100.00;95790.16;29395;202;63004;-59
2023/12/10 00:23:30;;;;;;;0.55;0.55;;;;;;;7.43;100.00;95793.16;29395;244;63009;-59
2023/12/10 00:24:03;;;;;;;0.50;0.50;;;;;;;7.36;99.46;95794.34;29394;201;64008;-57
2023/12/10 00:24:34;;;;;;;0.50;0.50;;;;;;;7.33;99.73;95794.94;29395;234;63009;-58
2023/12/10 00:25:07;;;;;;;0.80;0.80;;;;;;;7.27;100.00;95790.78;29395;244;63005;-58
2023/12/10 00:25:39;;;;;;;0.50;0.50;;;;;;;7.29;100.00;95796.63;29394;250;64014;-63
2023/12/10 00:26:10;;;;;;;0.60;0.60;;;;;;;7.32;99.57;95809.53;29395;238;63000;-61
2023/12/10 00:26:42;;;;;;;0.60;0.60;;;;;;;7.40;98.34;95797.25;29395;210;63009;-62
2023/12/10 00:27:14;;;;;;;0.60;0.60;;;;;;;7.38;98.43;95796.75;29395;202;63005;-56
2023/12/10 00:27:45;;;;;;;0.50;0.50;;;;;;;7.34;98.81;95799.25;29395;262;63009;-56
2023/12/10 00:28:16;;;;;;;0.50;0.50;;;;;;;7.34;99.24;95801.94;29395;254;63005;-57
2023/12/10 00:28:47;;;;;;;0.50;0.50;;;;;;;7.34;99.23;95811.94;29395;215;63009;-62
2023/12/10 00:29:18;;;;;;;0.60;0.60;;;;;;;7.34;98.96;95812.75;29395;252;63004;-57
2023/12/10 00:29:50;;;;;;;0.50;0.50;;;;;;;7.35;98.78;95830.53;29395;212;63004;-64
2023/12/10 00:30:21;;;;;;;1.67;1.40;;;;;;;7.36;98.25;95813.25;29395;199;63004;-57
2023/12/10 00:30:53;;;;;;;0.50;0.50;;;;;;;7.33;97.82;95800.34;29394;207;64013;-58
2023/12/10 00:31:24;;;;;;;0.60;0.60;;;;;;;7.31;98.46;95810.63;29395;218;63004;-57
2023/12/10 00:31:55;;;;;;;0.50;0.50;;;;;;;7.30;98.76;95810.94;29395;210;63008;-57
2023/12/10 00:32:26;;;;;;;0.60;0.60;;;;;;;7.26;99.40;95813.44;29395;206;63005;-56
2023/12/10 00:32:58;;;;;;;0.60;0.60;;;;;;;7.24;99.52;95822.94;29395;199;63017;-57
2023/12/10 00:33:29;;;;;;;0.52;0.52;;;;;;;7.25;100.00;95811.84;29395;210;63010;-57
2023/12/10 00:34:01;;;;;;;0.60;0.60;;;;;;;7.29;99.32;95818.22;29395;226;63009;-57
2023/12/10 00:34:32;;;;;;;0.60;0.60;;;;;;;7.27;98.76;95815.06;29395;214;63005;-56
2023/12/10 00:35:04;;;;;;;0.60;0.60;;;;;;;7.28;98.10;95813.94;29395;219;63024;-56
2023/12/10 00:35:35;;;;;;;0.60;0.60;;;;;;;7.31;98.00;95821.44;29395;254;63005;-56
2023/12/10 00:36:08;;;;;;;0.60;0.60;;;;;;;7.27;98.77;95812.34;29394;205;64013;-57
2023/12/10 00:36:39;;;;;;;0.60;0.60;;;;;;;7.25;99.20;95819.94;29395;221;63004;-57
2023/12/10 00:37:10;;;;;;;0.50;0.50;;;;;;;7.22;99.55;95804.34;29395;215;63009;-58
2023/12/10 00:37:42;;;;;;;0.52;0.52;;;;;;;7.18;99.83;95819.53;29395;225;63004;-58
2023/12/10 00:38:13;;;;;;;0.60;0.60;;;;;;;7.19;99.51;95826.53;29395;198;63009;-55
2023/12/10 00:38:47;;;;;;;3.20;1.45;;;;;;;7.23;98.67;95814.03;29395;255;63004;-59
2023/12/10 00:39:18;;;;;;;0.50;0.50;;;;;;;7.24;97.82;95820.25;29395;216;63008;-57
2023/12/10 00:39:50;;;;;;;0.60;0.60;;;;;;;7.20;98.35;95817.34;29395;216;63005;-57
2023/12/10 00:40:21;;;;;;;0.50;0.50;;;;;;;7.22;98.58;95825.94;29395;206;63009;-60
2023/12/10 00:40:52;;;;;;;0.50;0.50;;;;;;;7.22;98.46;95825.94;29395;218;63005;-57
2023/12/10 00:41:23;;;;;;;0.50;0.50;;;;;;;7.23;98.36;95818.63;29394;229;64013;-58
2023/12/10 00:41:55;;;;;;;0.60;0.60;;;;;;;7.23;97.98;95822.13;29395;295;63008;-57
2023/12/10 00:42:29;;;;;;;0.60;0.60;;;;;;;7.26;97.03;95813.44;29395;208;63024;-57
2023/12/10 00:43:00;;;;;;;0.60;0.60;;;;;;;7.29;97.34;95815.53;29395;234;63000;-62
2023/12/10 00:43:31;;;;;;;0.52;0.52;;;;;;;7.32;97.11;95820.34;29395;222;63009;-58
2023/12/10 00:44:04;;;;;;;0.50;0.50;;;;;;;7.29;97.14;95814.72;29395;229;63004;-58
2023/12/10 00:44:35;;;;;;;0.60;0.60;;;;;;;7.31;97.65;95817.94;29395;235;63009;-58
2023/12/10 00:45:08;;;;;;;0.60;0.60;;;;;;;7.22;98.74;95820.53;29395;214;63004;-57
2023/12/10 00:45:39;;;;;;;0.55;0.55;;;;;;;7.22;98.04;95823.22;29395;214;63009;-58
2023/12/10 00:46:10;;;;;;;0.50;0.50;;;;;;;7.20;98.52;95832.72;29395;249;63004;-59
2023/12/10 00:46:44;;;;;;;0.60;0.60;;;;;;;7.18;98.65;95821.41;29394;243;64013;-59
2023/12/10 00:47:15;;;;;;;0.60;0.60;;;;;;;7.20;98.90;95838.91;29395;225;63016;-59
2023/12/10 00:47:46;;;;;;;1.80;1.70;;;;;;;7.20;98.08;95825.44;29395;243;63009;-56
2023/12/10 00:48:17;;;;;;;0.60;0.60;;;;;;;7.23;97.89;95834.81;29395;228;63005;-58
2023/12/10 00:48:49;;;;;;;0.50;0.50;;;;;;;7.18;98.08;95830.31;29395;219;63009;-59
2023/12/10 00:49:21;;;;;;;0.50;0.50;;;;;;;7.16;98.70;95832.50;29395;215;63000;-58
2023/12/10 00:49:52;;;;;;;0.60;0.60;;;;;;;7.17;98.65;95847.59;29395;236;63009;-59
2023/12/10 00:50:23;;;;;;;1.27;0.82;;;;;;;7.24;97.30;95842.62;29395;208;63005;-57
2023/12/10 00:50:54;;;;;;;0.60;0.60;;;;;;;7.28;96.94;95843.59;29395;199;63009;-58
2023/12/10 00:51:26;;;;;;;0.50;0.50;;;;;;;7.30;96.17;95844.12;29395;210;63004;-57
2023/12/10 00:51:57;;;;;;;2.28;1.85;;;;;;;7.36;96.17;95847.53;29394;239;64013;-57
2023/12/10 00:52:29;;;;;;;0.60;0.60;;;;;;;7.36;95.89;95859.12;29395;302;63004;-58
2023/12/10 00:53:03;;;;;;;0.55;0.55;;;;;;;7.35;95.69;95857.53;29395;242;63009;-57
2023/12/10 00:53:35;;;;;;;0.60;0.60;;;;;;;7.28;96.32;95859.78;29395;223;63004;-57
2023/12/10 00:54:06;;;;;;;0.60;0.60;;;;;;;7.25;96.88;95857.72;29395;222;63008;-55
2023/12/10 00:54:37;;;;;;;0.50;0.50;;;;;;;7.27;96.74;95863.63;29395;216;63005;-58
2023/12/10 00:55:10;;;;;;;0.80;0.80;;;;;;;7.33;95.46;95858.91;29395;215;63009;-57
2023/12/10 00:55:41;;;;;;;0.50;0.50;;;;;;;7.34;95.44;95874.00;29395;202;63014;-56
2023/12/10 00:56:22;;;;;;;0.60;0.60;;;;;;;7.31;95.79;95872.69;29395;199;63009;-56
2023/12/10 00:56:53;;;;;;;0.60;0.60;;;;;;;7.26;96.44;95867.41;29417;265;63005;-56
2023/12/10 00:57:25;;;;;;;0.60;0.60;;;;;;;7.24;96.79;95860.72;29394;248;64013;-56
2023/12/10 00:57:56;;;;;;;0.60;0.60;;;;;;;7.24;96.88;95872.31;29395;252;63005;-56
2023/12/10 00:58:28;;;;;;;0.50;0.50;;;;;;;7.24;96.52;95882.28;29394;251;64009;-57
2023/12/10 00:58:59;;;;;;;0.60;0.60;;;;;;;7.21;96.87;95883.69;29395;216;63004;-56
2023/12/10 00:59:30;;;;;;;0.50;0.50;;;;;;;7.21;96.39;95878.28;29395;276;63009;-61
2023/12/10 01:00:04;;;;;;;0.60;0.60;;;;;;;7.24;96.03;95869.59;29395;234;63004;-57
2023/12/10 01:00:36;;;;;;;0.60;0.60;;;;;;;7.20;96.40;95873.19;29395;220;63008;-57
2023/12/10 01:01:07;;;;;;;0.60;0.60;;;;;;;7.18;96.77;95878.88;29394;224;64008;-57
2023/12/10 01:01:39;;;;;;;0.60;0.60;;;;;;;7.25;96.30;95884.69;29395;197;63004;-60
2023/12/10 01:02:10;;;;;;;0.93;0.93;;;;;;;7.32;95.18;95889.69;29395;196;63004;-57
2023/12/10 01:02:41;;;;;;;0.60;0.60;;;;;;;7.30;94.54;95886.47;29395;202;63013;-58
2023/12/10 01:03:14;;;;;;;0.60;0.60;;;;;;;7.33;94.56;95889.41;29395;211;63005;-57
2023/12/10 01:03:45;;;;;;;0.60;0.60;;;;;;;7.34;94.09;95892.91;29395;197;63009;-56
2023/12/10 01:04:16;;;;;;;0.60;0.60;;;;;;;7.34;94.59;95892.91;29395;213;63007;-56
2023/12/10 01:04:48;;;;;;;0.50;0.50;;;;;;;7.31;94.82;95896.97;29395;223;63009;-58
2023/12/10 01:05:19;;;;;;;0.50;0.50;;;;;;;7.27;95.06;95898.69;29395;259;63005;-56
2023/12/10 01:05:50;;;;;;;0.60;0.60;;;;;;;7.25;95.47;95898.19;29394;197;64013;-58
2023/12/10 01:06:22;;;;;;;0.60;0.60;;;;;;;7.23;95.42;95907.66;29394;196;64009;-57
2023/12/10 01:06:53;;;;;;;0.60;0.60;;;;;;;7.21;95.56;95909.88;29395;215;63014;-58
2023/12/10 01:07:24;;;;;;;0.50;0.50;;;;;;;7.18;96.04;95900.47;29395;213;63004;-57
2023/12/10 01:07:55;;;;;;;0.60;0.60;;;;;;;7.17;95.94;95906.94;29395;205;63012;-57
2023/12/10 01:08:27;;;;;;;0.60;0.60;;;;;;;7.18;96.34;95907.75;29395;212;63008;-56
2023/12/10 01:08:58;;;;;;;0.60;0.60;;;;;;;7.23;95.24;95911.16;29395;196;63009;-57
2023/12/10 01:09:29;;;;;;;0.50;0.50;;;;;;;7.22;95.12;95906.88;29395;197;63005;-58
2023/12/10 01:10:01;;;;;;;0.60;0.60;;;;;;;7.23;95.14;95913.88;29395;214;63009;-57
2023/12/10 01:10:32;;;;;;;0.50;0.50;;;;;;;7.21;95.60;95912.56;29395;266;63005;-58
2023/12/10 01:11:04;;;;;;;0.50;0.50;;;;;;;7.19;95.89;95917.44;29395;199;63009;-58
2023/12/10 01:11:36;;;;;;;0.60;0.60;;;;;;;7.16;96.34;95918.84;29394;230;64009;-57
2023/12/10 01:12:08;;;;;;;0.60;0.60;;;;;;;7.14;96.78;95926.41;29395;189;63009;-56
2023/12/10 01:12:39;;;;;;;0.60;0.60;;;;;;;7.13;97.03;95924.81;29395;214;63005;-57
2023/12/10 01:13:10;;;;;;;0.60;0.60;;;;;;;7.11;97.13;95929.72;29395;267;63009;-56
2023/12/10 01:13:42;;;;;;;0.60;0.60;;;;;;;7.09;96.89;95929.19;29395;197;63009;-56
2023/12/10 01:14:13;;;;;;;0.60;0.60;;;;;;;7.12;96.72;95934.00;29395;216;63009;-59
2023/12/10 01:14:46;;;;;;;0.60;0.60;;;;;;;7.15;96.19;95933.41;29395;215;63004;-58
2023/12/10 01:15:29;;;;;;;0.60;0.60;;;;;;;7.15;96.33;95940.72;29395;209;63023;-58
2023/12/10 01:16:00;;;;;;;0.50;0.50;;;;;;;7.08;96.91;95938.37;29395;230;63004;-57
2023/12/10 01:16:31;;;;;;;1.45;1.40;;;;;;;7.05;97.16;95949.75;29395;222;63009;-57
2023/12/10 01:17:04;;;;;;;0.60;0.60;;;;;;;7.09;97.12;95937.28;29394;231;64009;-57
2023/12/10 01:17:35;;;;;;;0.57;0.57;;;;;;;7.13;96.34;95946.41;29395;233;63009;-56
2023/12/10 01:18:06;;;;;;;0.50;0.50;;;;;;;7.15;96.75;95948.81;29395;250;63005;-56
2023/12/10 01:18:37;;;;;;;0.50;0.50;;;;;;;7.16;95.97;95948.50;29395;217;63009;-57
2023/12/10 01:19:09;;;;;;;0.60;0.60;;;;;;;7.17;95.96;95952.81;29395;202;63005;-54
2023/12/10 01:19:40;;;;;;;0.50;0.50;;;;;;;7.18;95.15;95953.63;29395;365;63009;-57
2023/12/10 01:20:12;;;;;;;0.50;0.50;;;;;;;7.16;95.24;95947.72;29395;271;63005;-57
2023/12/10 01:20:44;;;;;;;0.60;0.60;;;;;;;7.15;95.45;95949.59;29395;215;63005;-56
2023/12/10 01:21:15;;;;;;;0.60;0.60;;;;;;;7.15;95.36;95952.31;29395;263;63004;-58
2023/12/10 01:21:47;;;;;;;0.50;0.50;;;;;;;7.21;94.58;95953.84;29395;335;63009;-57
2023/12/10 01:22:18;;;;;;;0.50;0.50;;;;;;;7.21;94.51;95959.22;29394;224;64009;-56
2023/12/10 01:22:49;;;;;;;0.60;0.60;;;;;;;7.18;94.62;95970.59;29395;231;63009;-58
2023/12/10 01:23:21;;;;;;;0.60;0.60;;;;;;;7.18;95.09;95970.59;29395;235;63004;-57
2023/12/10 01:23:54;;;;;;;0.50;0.50;;;;;;;7.17;95.12;95950.12;29394;232;64013;-58
2023/12/10 01:24:26;;;;;;;0.50;0.50;;;;;;;7.16;95.28;95967.41;29395;215;63005;-57
2023/12/10 01:24:58;;;;;;;0.50;0.50;;;;;;;7.14;95.62;95953.41;29395;225;63009;-57
2023/12/10 01:25:29;;;;;;;0.55;0.55;;;;;;;7.12;96.27;95966.38;29395;233;63005;-56
2023/12/10 01:26:00;;;;;;;0.60;0.60;;;;;;;7.10;95.54;95971.25;29395;299;63009;-58
2023/12/10 01:26:31;;;;;;;0.55;0.55;;;;;;;7.11;95.76;95967.47;29395;230;63005;-57
2023/12/10 01:27:03;;;;;;;0.60;0.60;;;;;;;7.09;95.29;95972.34;29395;263;63009;-58
2023/12/10 01:27:35;;;;;;;0.60;0.60;;;;;;;7.13;95.61;95969.87;29395;197;63005;-61
2023/12/10 01:28:06;;;;;;;0.50;0.50;;;;;;;7.18;93.95;95976.00;29395;254;63009;-62
2023/12/10 01:28:37;;;;;;;0.50;0.50;;;;;;;7.23;93.61;95973.22;29395;199;63004;-56
2023/12/10 01:29:08;;;;;;;0.60;0.60;;;;;;;7.22;93.36;95978.91;29394;196;64013;-56
2023/12/10 01:29:40;;;;;;;0.50;0.50;;;;;;;7.20;93.54;95967.63;29395;203;63004;-57
2023/12/10 01:30:12;;;;;;;0.60;0.60;;;;;;;7.16;93.89;95980.09;29395;213;63009;-57
2023/12/10 01:30:43;;;;;;;0.50;0.50;;;;;;;7.16;94.72;95983.59;29395;231;63004;-59
2023/12/10 01:31:17;;;;;;;0.57;0.57;;;;;;;7.13;94.91;95986.06;29395;201;63008;-57
2023/12/10 01:31:48;;;;;;;0.50;0.50;;;;;;;7.17;94.04;95989.78;29395;203;63005;-58
2023/12/10 01:32:20;;;;;;;0.60;0.60;;;;;;;7.16;92.39;95994.38;29395;212;63009;-58
2023/12/10 01:32:57;;;;;;;1.83;1.83;;;;;;;7.17;93.26;95995.97;29395;231;63005;-58
2023/12/10 01:33:28;;;;;;;0.60;0.60;;;;;;;7.18;93.77;95996.78;29395;242;63009;-59
2023/12/10 01:34:00;;;;;;;0.50;0.50;;;;;;;7.24;93.05;96007.22;29395;272;63005;-59
2023/12/10 01:34:31;;;;;;;0.85;0.85;;;;;;;7.27;92.23;95997.72;29394;203;64013;-56
2023/12/10 01:35:04;;;;;;;0.60;0.60;;;;;;;7.30;92.00;96006.00;29395;207;63009;-57
2023/12/10 01:35:36;;;;;;;0.60;0.60;;;;;;;7.31;91.69;96002.22;29395;198;63009;-58
2023/12/10 01:36:08;;;;;;;0.60;0.60;;;;;;;7.30;92.10;95995.22;29395;202;63011;-57
2023/12/10 01:36:40;;;;;;;0.70;0.70;;;;;;;7.33;91.74;96002.72;29395;236;63009;-59
2023/12/10 01:37:11;;;;;;;0.60;0.60;;;;;;;7.34;91.91;96004.34;29395;266;63004;-58
2023/12/10 01:37:42;;;;;;;0.60;0.60;;;;;;;7.35;91.61;96003.25;29395;206;63009;-56
2023/12/10 01:38:14;;;;;;;0.50;0.50;;;;;;;7.35;91.18;96002.44;29395;241;63004;-56
2023/12/10 01:38:45;;;;;;;0.50;0.50;;;;;;;7.33;91.44;96005.44;29395;273;63008;-57
2023/12/10 01:39:17;;;;;;;0.55;0.55;;;;;;;7.30;92.08;96006.00;29395;253;63005;-57
2023/12/10 01:39:48;;;;;;;0.50;0.50;;;;;;;7.29;92.53;96003.59;29394;216;64014;-59
2023/12/10 01:40:20;;;;;;;0.60;0.60;;;;;;;7.26;92.95;96009.63;29395;225;63005;-58
2023/12/10 01:40:54;;;;;;;0.50;0.50;;;;;;;7.26;93.52;96015.81;29395;228;63009;-58
2023/12/10 01:41:25;;;;;;;0.50;0.50;;;;;;;7.24;93.30;96015.31;29395;235;63005;-57
2023/12/10 01:41:57;;;;;;;0.60;0.60;;;;;;;7.23;93.27;96008.31;29395;216;63009;-58
2023/12/10 01:42:28;;;;;;;0.50;0.50;;;;;;;7.23;93.39;96007.50;29395;197;63005;-57
2023/12/10 01:43:06;;;;;;;0.57;0.57;;;;;;;7.18;92.39;96008.38;29395;202;63009;-58
2023/12/10 01:43:37;;;;;;;0.50;0.50;;;;;;;7.14;93.06;96001.97;29395;250;63004;-59
2023/12/10 01:44:09;;;;;;;0.50;0.50;;;;;;;7.11;93.64;96002.53;29395;247;63009;-58
2023/12/10 01:44:41;;;;;;;0.60;0.60;;;;;;;7.07;94.19;96007.72;29395;203;63000;-58
2023/12/10 01:45:13;;;;;;;0.50;0.50;;;;;;;7.06;94.89;96008.00;29394;226;64013;-58
2023/12/10 01:45:50;;;;;;;0.50;0.50;;;;;;;7.03;95.56;96012.09;29395;218;63004;-58
2023/12/10 01:46:21;;;;;;;0.60;0.60;;;;;;;7.01;95.93;96008.06;29395;206;63008;-57
2023/12/10 01:46:55;;;;;;;0.50;0.50;;;;;;;6.99;96.43;96008.34;29395;212;63005;-58
2023/12/10 01:47:29;;;;;;;0.52;0.52;;;;;;;6.97;96.77;96012.44;29395;245;63009;-58
2023/12/10 01:48:06;;;;;;;0.60;0.60;;;;;;;6.94;96.84;96018.41;29395;204;63005;-58
2023/12/10 01:48:39;;;;;;;0.60;0.60;;;;;;;6.94;97.13;96007.63;29395;222;63015;-58
2023/12/10 01:49:11;;;;;;;0.50;0.50;;;;;;;6.93;97.24;96008.75;29395;214;63005;-59
2023/12/10 01:49:42;;;;;;;0.57;0.57;;;;;;;6.94;96.99;96013.00;29395;211;63009;-57
2023/12/10 01:50:15;;;;;;;0.50;0.50;;;;;;;6.93;96.34;96011.44;29394;213;64009;-58
2023/12/10 01:50:47;;;;;;;0.60;0.60;;;;;;;6.93;96.38;96014.13;29395;197;63023;-58
2023/12/10 01:51:19;;;;;;;0.50;0.50;;;;;;;6.92;96.75;96007.94;29395;197;63004;-57
2023/12/10 01:51:51;;;;;;;0.60;0.60;;;;;;;6.92;96.63;96004.44;29395;292;63009;-58
2023/12/10 01:52:23;;;;;;;0.50;0.50;;;;;;;6.92;96.79;96013.34;29395;227;63004;-57
2023/12/10 01:52:54;;;;;;;0.50;0.50;;;;;;;6.92;95.87;96015.22;29395;215;63016;-58
2023/12/10 01:53:26;;;;;;;0.50;0.50;;;;;;;6.92;96.45;96004.44;29395;242;63004;-58
2023/12/10 01:53:57;;;;;;;0.50;0.50;;;;;;;6.94;96.25;96013.00;29395;211;63008;-57
2023/12/10 01:54:29;;;;;;;0.60;0.60;;;;;;;6.91;95.77;96013.63;29395;210;63005;-58
2023/12/10 01:55:03;;;;;;;0.50;0.50;;;;;;;6.88;95.35;96014.22;29395;202;63009;-58
2023/12/10 01:55:34;;;;;;;0.50;0.50;;;;;;;6.85;95.71;96018.28;29394;229;64009;-58
2023/12/10 01:56:09;;;;;;;0.60;0.60;;;;;;;6.87;96.47;96012.59;29395;206;63009;-59
2023/12/10 01:56:41;;;;;;;0.60;0.60;;;;;;;6.88;97.17;96019.59;29395;204;63005;-58
2023/12/10 01:57:12;;;;;;;0.60;0.60;;;;;;;6.90;96.66;96012.03;29395;263;63009;-58
2023/12/10 01:57:44;;;;;;;0.60;0.60;;;;;;;6.95;96.36;96022.72;29395;215;63004;-57
2023/12/10 01:58:16;;;;;;;0.50;0.50;;;;;;;6.94;96.57;96019.22;29395;270;63009;-58
2023/12/10 01:58:48;;;;;;;0.60;0.60;;;;;;;6.91;95.77;96019.03;29395;258;63006;-62
2023/12/10 01:59:20;;;;;;;0.50;0.50;;;;;;;6.92;96.04;96012.53;29395;235;63009;-58
2023/12/10 01:59:52;;;;;;;0.60;0.60;;;;;;;6.89;95.90;96021.22;29395;244;63004;-59
2023/12/10 02:00:25;;;;;;;0.50;0.50;;;;;;;6.86;95.88;96021.78;29395;251;63008;-57
2023/12/10 02:00:57;;;;;;;0.55;0.55;;;;;;;6.86;96.02;96025.28;29394;197;64009;-57
2023/12/10 02:01:28;;;;;;;0.60;0.60;;;;;;;6.83;95.83;96022.34;29395;223;63009;-58
2023/12/10 02:01:59;;;;;;;0.50;0.50;;;;;;;6.82;96.19;96023.44;29395;200;63016;-58
2023/12/10 02:02:31;;;;;;;0.50;0.50;;;;;;;6.81;96.18;96030.72;29395;222;63009;-58
2023/12/10 02:03:05;;;;;;;0.60;0.60;;;;;;;6.80;97.04;96029.13;29395;217;63005;-59
2023/12/10 02:03:36;;;;;;;0.50;0.50;;;;;;;6.81;96.92;96029.94;29395;197;63009;-58
2023/12/10 02:04:10;;;;;;;0.50;0.50;;;;;;;6.83;95.54;96025.06;29395;217;63005;-58
2023/12/10 02:04:41;;;;;;;0.50;0.50;;;;;;;6.85;95.33;96025.56;29395;253;63009;-58
2023/12/10 02:05:13;;;;;;;0.50;0.50;;;;;;;6.87;95.28;96040.38;29395;212;63004;-57
2023/12/10 02:05:44;;;;;;;0.60;0.60;;;;;;;6.91;94.72;96035.19;29395;197;63009;-58
2023/12/10 02:06:15;;;;;;;0.60;0.60;;;;;;;6.92;94.31;96047.59;29394;218;64009;-57
2023/12/10 02:06:46;;;;;;;0.60;0.60;;;;;;;6.95;93.80;96036.19;29395;288;63009;-58
2023/12/10 02:07:18;;;;;;;0.60;0.60;;;;;;;6.99;93.49;96042.63;29395;251;63004;-58
2023/12/10 02:07:49;;;;;;;0.52;0.52;;;;;;;6.99;93.28;96039.94;29395;197;63008;-58
2023/12/10 02:08:22;;;;;;;0.60;0.60;;;;;;;6.99;93.02;96039.94;29395;222;63011;-57
2023/12/10 02:08:53;;;;;;;0.50;0.50;;;;;;;6.99;93.49;96034.53;29395;216;63009;-57
2023/12/10 02:09:24;;;;;;;0.60;0.60;;;;;;;7.01;93.34;96040.44;29395;258;63005;-57
2023/12/10 02:09:58;;;;;;;0.52;0.52;;;;;;;7.00;93.31;96038.84;29395;213;63009;-58
2023/12/10 02:10:29;;;;;;;0.57;0.57;;;;;;;7.02;93.38;96042.03;29395;230;63005;-58
2023/12/10 02:11:00;;;;;;;0.60;0.60;;;;;;;7.00;92.20;96039.63;29395;247;63009;-58
2023/12/10 02:11:32;;;;;;;0.60;0.60;;;;;;;6.99;92.28;96043.41;29394;203;64009;-59
2023/12/10 02:12:04;;;;;;;0.60;0.60;;;;;;;7.00;93.04;96057.72;29395;208;63009;-58
2023/12/10 02:12:36;;;;;;;0.50;0.50;;;;;;;7.00;93.03;96049.62;29395;199;63005;-57
2023/12/10 02:13:07;;;;;;;0.60;0.60;;;;;;;6.99;93.87;96048.81;29395;197;63009;-57
2023/12/10 02:13:39;;;;;;;0.52;0.52;;;;;;;6.95;94.01;96052.37;29395;214;63006;-57
2023/12/10 02:14:10;;;;;;;0.50;0.50;;;;;;;6.91;94.27;96057.56;29395;205;63009;-59
2023/12/10 02:14:41;;;;;;;0.50;0.50;;;;;;;6.90;94.56;96052.47;29395;215;63004;-58
2023/12/10 02:15:20;;;;;;;0.60;0.60;;;;;;;6.92;94.32;96050.28;29395;257;63008;-59
2023/12/10 02:15:51;;;;;;;0.60;0.60;;;;;;;6.96;93.70;96048.59;29395;215;63009;-56
2023/12/10 02:16:22;;;;;;;0.60;0.60;;;;;;;6.97;92.89;96050.19;29395;258;63009;-57
2023/12/10 02:16:54;;;;;;;0.50;0.50;;;;;;;6.99;93.12;96050.72;29394;225;64009;-58
2023/12/10 02:17:26;;;;;;;0.50;0.50;;;;;;;6.99;92.62;96042.63;29395;197;63009;-58
2023/12/10 02:17:58;;;;;;;0.60;0.60;;;;;;;6.98;93.16;96046.41;29395;225;63005;-57
2023/12/10 02:18:29;;;;;;;0.60;0.60;;;;;;;6.97;92.70;96055.59;29395;275;63009;-58
2023/12/10 02:19:00;;;;;;;0.55;0.55;;;;;;;7.00;93.08;96049.62;29395;239;63005;-58
2023/12/10 02:19:33;;;;;;;0.52;0.52;;;;;;;7.00;92.69;96045.03;29395;198;63005;-58
2023/12/10 02:20:09;;;;;;;0.50;0.50;;;;;;;7.05;92.49;96041.47;29395;239;63005;-57
2023/12/10 02:20:41;;;;;;;0.60;0.60;;;;;;;7.08;92.01;96038.19;29395;208;63009;-57
2023/12/10 02:21:12;;;;;;;0.50;0.50;;;;;;;7.07;92.18;96033.88;29395;211;63004;-59
2023/12/10 02:21:47;;;;;;;0.50;0.50;;;;;;;7.07;91.90;96042.78;29395;239;63009;-58
2023/12/10 02:22:21;;;;;;;0.60;0.60;;;;;;;7.07;92.00;96047.38;29394;202;64022;-58
2023/12/10 02:23:38;;;;;;;0.50;0.50;;;;;;;7.06;92.12;96049.25;29395;235;63020;-58
2023/12/10 02:24:14;;;;;;;0.60;0.60;;;;;;;7.04;92.47;96050.66;29395;223;63009;-57
2023/12/10 02:24:51;;;;;;;0.50;0.50;;;;;;;7.08;91.55;96051.69;29395;251;63009;-58
2023/12/10 02:25:34;;;;;;;0.50;0.50;;;;;;;7.09;91.85;96058.69;29395;252;63005;-58
2023/12/10 02:26:07;;;;;;;0.50;0.50;;;;;;;7.09;92.13;96058.69;29395;263;63009;-58
2023/12/10 02:26:39;;;;;;;0.60;0.60;;;;;;;7.10;91.92;96059.47;29395;196;63005;-57
2023/12/10 02:27:11;;;;;;;0.50;0.50;;;;;;;7.16;91.09;96058.31;29395;202;63009;-56
2023/12/10 02:27:42;;;;;;;0.60;0.60;;;;;;;7.20;90.30;96060.16;29394;263;64009;-57
2023/12/10 02:28:21;;;;;;;0.50;0.50;;;;;;;7.22;90.47;96062.56;29395;249;63009;-59
2023/12/10 02:28:54;;;;;;;0.50;0.50;;;;;;;7.20;90.13;96065.53;29395;218;63004;-58
2023/12/10 02:29:25;;;;;;;0.52;0.52;;;;;;;7.24;90.02;96065.78;29395;224;63009;-58
2023/12/10 02:29:57;;;;;;;0.50;0.50;;;;;;;7.22;90.40;96055.25;29395;202;63004;-57
2023/12/10 02:30:30;;;;;;;0.50;0.50;;;;;;;7.21;90.50;96059.06;29395;202;63016;-57
2023/12/10 02:31:03;;;;;;;0.50;0.50;;;;;;;7.17;90.69;96059.94;29395;218;63004;-58
2023/12/10 02:31:34;;;;;;;0.60;0.60;;;;;;;7.17;90.92;96055.34;29395;236;63005;-60
2023/12/10 02:32:06;;;;;;;0.50;0.50;;;;;;;7.18;90.93;96062.34;29395;276;63005;-58
2023/12/10 02:32:37;;;;;;;0.50;0.50;;;;;;;7.17;90.93;96060.72;29395;224;63009;-57
2023/12/10 02:33:08;;;;;;;0.50;0.50;;;;;;;7.15;91.01;96062.91;29394;215;64009;-58
2023/12/10 02:33:40;;;;;;;0.50;0.50;;;;;;;7.11;91.47;96056.50;29395;220;63009;-57
2023/12/10 02:34:11;;;;;;;0.50;0.50;;;;;;;7.08;92.00;96057.06;29395;207;63010;-56
2023/12/10 02:34:43;;;;;;;0.50;0.50;;;;;;;7.11;91.76;96067.28;29395;197;63009;-58